Time;durP1;ratioP1;P1;durP2;ratioP2;P2;SDS_P1;SDS_P2;PMS_P1;PMS_P2;Temp;Humidity;BMP_temperature;BMP_pressure;BME280_temperature;BME280_humidity;BME280_pressure;Samples;Min_cycle;Max_cycle;Signal;HPM_P1;HPM_P2
2022/04/08 00:01:59;;;;;;;2.43;1.47;;;7.80;99.90;;;;;;5055897;28;20280;-78
2022/04/08 00:04:25;;;;;;;2.17;1.30;;;7.90;99.90;;;;;;5065995;28;20217;-78
2022/04/08 00:06:51;;;;;;;4.97;2.10;;;7.80;99.90;;;;;;5058966;28;20209;-80
2022/04/08 00:09:16;;;;;;;1.10;1.00;;;7.60;99.90;;;;;;5067492;28;20177;-72
2022/04/08 00:11:42;;;;;;;2.93;1.53;;;7.50;99.90;;;;;;5069166;28;20264;-76
2022/04/08 00:14:07;;;;;;;2.90;1.93;;;7.50;99.90;;;;;;5068544;28;20265;-76
2022/04/08 00:16:33;;;;;;;4.30;1.77;;;7.30;99.90;;;;;;5068403;28;20663;-77
2022/04/08 00:18:58;;;;;;;2.30;1.57;;;7.30;99.90;;;;;;5065849;28;20209;-77
2022/04/08 00:21:25;;;;;;;4.27;2.50;;;7.40;99.90;;;;;;5068033;28;20221;-75
2022/04/08 00:23:52;;;;;;;1.83;1.63;;;7.40;99.90;;;;;;5066445;28;20201;-77
2022/04/08 00:26:17;;;;;;;3.87;2.50;;;7.30;99.90;;;;;;5066505;28;20186;-70
2022/04/08 00:28:43;;;;;;;7.93;2.90;;;7.20;99.90;;;;;;5058627;28;20292;-70
2022/04/08 00:31:09;;;;;;;4.50;2.47;;;7.00;99.90;;;;;;5067906;28;20687;-71
2022/04/08 00:33:34;;;;;;;5.77;2.23;;;6.90;99.90;;;;;;5063814;28;20198;-75
2022/04/08 00:36:00;;;;;;;2.50;2.17;;;6.80;99.90;;;;;;5065891;28;20571;-70
2022/04/08 00:38:26;;;;;;;7.30;2.10;;;6.80;99.90;;;;;;5063156;28;20763;-70
2022/04/08 00:40:51;;;;;;;2.57;2.23;;;6.70;99.90;;;;;;5064148;28;20174;-62
2022/04/08 00:43:19;;;;;;;6.47;2.57;;;6.60;99.90;;;;;;5063225;28;20244;-65
2022/04/08 00:45:45;;;;;;;5.73;2.23;;;6.50;99.90;;;;;;5067520;28;20213;-64
2022/04/08 00:48:11;;;;;;;3.73;2.30;;;6.50;99.90;;;;;;5064708;28;20190;-65
2022/04/08 00:50:39;;;;;;;1.77;1.67;;;6.50;99.90;;;;;;5057942;28;20539;-65
2022/04/08 00:53:06;;;;;;;4.73;2.20;;;6.60;99.90;;;;;;5066136;28;20186;-64
2022/04/08 00:55:33;;;;;;;1.77;1.47;;;6.70;99.90;;;;;;5066028;28;20379;-64
2022/04/08 00:58:02;;;;;;;3.33;1.40;;;6.60;99.90;;;;;;5066955;28;20210;-63
2022/04/08 01:00:36;;;;;;;2.90;1.77;;;6.70;99.90;;;;;;5047977;28;20580;-58
2022/04/08 01:03:02;;;;;;;2.97;1.10;;;6.70;99.90;;;;;;5046129;28;20175;-60
2022/04/08 01:05:28;;;;;;;3.03;1.33;;;6.80;99.90;;;;;;5047986;28;20212;-59
2022/04/08 01:07:57;;;;;;;1.83;1.20;;;6.80;99.90;;;;;;5047111;28;20222;-60
2022/04/08 01:10:23;;;;;;;4.40;1.00;;;7.00;99.90;;;;;;5064249;28;20612;-61
2022/04/08 01:12:50;;;;;;;1.37;1.07;;;6.90;99.90;;;;;;5067294;28;20255;-61
2022/04/08 01:15:22;;;;;;;1.00;0.77;;;7.00;99.90;;;;;;5065809;28;20194;-61
2022/04/08 01:17:49;;;;;;;2.47;1.63;;;7.00;99.90;;;;;;5067294;28;20656;-60
2022/04/08 01:20:15;;;;;;;1.87;1.43;;;7.00;99.90;;;;;;5053224;28;20230;-62
2022/04/08 01:22:42;;;;;;;2.87;1.57;;;7.10;99.90;;;;;;5056743;28;20739;-59
2022/04/08 01:25:09;;;;;;;1.60;1.03;;;7.10;99.90;;;;;;5057118;28;20846;-60
2022/04/08 01:27:35;;;;;;;0.73;0.70;;;7.00;99.90;;;;;;5059576;28;20669;-60
2022/04/08 01:30:01;;;;;;;2.97;0.73;;;7.10;99.90;;;;;;5059684;28;20206;-60
2022/04/08 01:32:27;;;;;;;6.73;1.30;;;7.00;99.90;;;;;;5055867;28;20206;-60
2022/04/08 01:34:53;;;;;;;0.70;0.70;;;7.10;99.90;;;;;;5060452;28;20194;-60
2022/04/08 01:37:19;;;;;;;3.63;1.27;;;7.10;99.90;;;;;;5059311;28;20203;-60
2022/04/08 01:39:44;;;;;;;1.10;0.77;;;7.10;99.90;;;;;;5063822;28;20197;-61
2022/04/08 01:42:10;;;;;;;1.00;0.87;;;7.00;99.90;;;;;;5049969;28;20701;-60
2022/04/08 01:44:37;;;;;;;4.80;1.37;;;7.00;99.90;;;;;;5045011;28;20245;-60
2022/04/08 01:47:03;;;;;;;1.23;0.80;;;7.00;99.90;;;;;;5062954;28;20194;-59
2022/04/08 01:49:29;;;;;;;1.00;1.00;;;7.00;99.90;;;;;;5063803;28;20198;-61
2022/04/08 01:51:54;;;;;;;4.27;1.30;;;7.00;99.90;;;;;;5066298;28;20277;-60
2022/04/08 01:54:20;;;;;;;2.60;1.20;;;7.00;99.90;;;;;;5064406;28;20236;-59
2022/04/08 01:56:46;;;;;;;9.00;1.33;;;7.10;99.90;;;;;;5062427;28;20202;-60
2022/04/08 01:59:12;;;;;;;3.27;1.53;;;7.00;99.90;;;;;;5063373;28;20198;-61
2022/04/08 02:01:37;;;;;;;1.90;0.87;;;7.00;99.90;;;;;;5065215;28;20205;-60
2022/04/08 02:04:04;;;;;;;1.30;1.20;;;7.00;99.90;;;;;;5054709;28;20221;-61
2022/04/08 02:06:34;;;;;;;2.23;1.40;;;7.00;99.90;;;;;;5047940;28;20191;-61
2022/04/08 02:09:00;;;;;;;3.90;1.07;;;7.00;99.90;;;;;;5053004;28;20251;-60
2022/04/08 02:11:25;;;;;;;0.87;0.83;;;7.00;99.90;;;;;;5063267;28;20293;-60
2022/04/08 02:13:51;;;;;;;2.70;1.60;;;7.00;99.90;;;;;;5054950;28;20234;-62
2022/04/08 02:16:17;;;;;;;1.67;0.80;;;7.10;99.90;;;;;;5061666;28;20186;-60
2022/04/08 02:18:42;;;;;;;1.43;1.33;;;7.10;99.90;;;;;;5050485;28;20981;-59
2022/04/08 02:21:09;;;;;;;1.90;0.90;;;7.10;99.90;;;;;;5059482;28;20179;-59
2022/04/08 02:23:35;;;;;;;3.77;1.20;;;7.00;99.90;;;;;;5056463;28;20623;-60
2022/04/08 02:26:01;;;;;;;1.97;1.20;;;7.10;99.90;;;;;;5051204;28;20202;-59
2022/04/08 02:28:27;;;;;;;2.13;1.00;;;7.10;99.90;;;;;;5056059;28;20217;-60
2022/04/08 02:30:54;;;;;;;3.27;1.67;;;7.10;99.90;;;;;;5054592;28;20676;-60
2022/04/08 02:33:20;;;;;;;4.90;1.13;;;7.20;99.90;;;;;;5054594;28;20544;-60
2022/04/08 02:35:45;;;;;;;1.87;1.13;;;7.10;99.90;;;;;;5062846;28;20202;-59
2022/04/08 02:38:11;;;;;;;3.73;0.80;;;7.20;99.90;;;;;;5057439;28;20296;-60
2022/04/08 02:40:37;;;;;;;2.30;1.10;;;7.20;99.90;;;;;;5051765;28;20819;-60
2022/04/08 02:43:03;;;;;;;4.33;1.27;;;7.20;99.90;;;;;;5059682;28;20206;-60
2022/04/08 02:45:29;;;;;;;2.40;1.20;;;7.30;99.90;;;;;;5065526;28;20193;-61
2022/04/08 02:47:55;;;;;;;1.50;1.27;;;7.20;99.90;;;;;;5052930;28;20521;-61
2022/04/08 02:50:20;;;;;;;2.47;0.73;;;7.20;99.90;;;;;;5045503;28;20191;-61
2022/04/08 02:52:46;;;;;;;2.40;1.00;;;7.20;99.90;;;;;;5063238;28;20249;-60
2022/04/08 02:55:11;;;;;;;0.83;0.83;;;7.30;99.90;;;;;;5065208;28;20194;-62
2022/04/08 02:57:44;;;;;;;3.80;0.87;;;7.30;99.90;;;;;;5063239;28;20210;-60
2022/04/08 03:00:11;;;;;;;1.03;0.83;;;7.30;99.90;;;;;;5064350;28;20513;-62
2022/04/08 03:02:36;;;;;;;5.30;1.30;;;7.30;99.90;;;;;;5054125;28;20202;-61
2022/04/08 03:05:06;;;;;;;3.83;0.80;;;7.30;99.90;;;;;;5059721;28;20186;-61
2022/04/08 03:07:32;;;;;;;1.90;1.13;;;7.30;99.90;;;;;;5061211;28;20210;-62
2022/04/08 03:09:57;;;;;;;2.00;0.80;;;7.20;99.90;;;;;;5054802;28;20259;-60
2022/04/08 03:12:23;;;;;;;4.53;1.40;;;7.20;99.90;;;;;;5052865;28;20632;-61
2022/04/08 03:14:48;;;;;;;1.27;1.13;;;7.20;99.90;;;;;;5065169;28;20198;-59
2022/04/08 03:17:14;;;;;;;0.97;0.97;;;7.20;99.90;;;;;;5051440;28;20217;-60
2022/04/08 03:19:39;;;;;;;3.20;1.10;;;7.20;99.90;;;;;;5062369;28;20186;-61
2022/04/08 03:22:06;;;;;;;2.00;0.80;;;7.30;99.90;;;;;;5062280;28;20198;-61
2022/04/08 03:24:32;;;;;;;2.57;1.33;;;7.30;99.90;;;;;;5056672;28;20321;-62
2022/04/08 03:26:57;;;;;;;1.80;1.13;;;7.30;99.90;;;;;;5049952;28;20289;-63
2022/04/08 03:29:23;;;;;;;1.10;1.00;;;7.30;99.90;;;;;;5065169;28;20940;-62
2022/04/08 03:31:49;;;;;;;2.50;1.37;;;7.30;99.90;;;;;;5047627;28;20194;-62
2022/04/08 03:34:14;;;;;;;2.93;2.07;;;7.40;99.90;;;;;;5057556;28;20244;-62
2022/04/08 03:36:40;;;;;;;1.40;0.97;;;7.40;99.90;;;;;;5047435;28;20587;-62
2022/04/08 03:39:06;;;;;;;0.97;0.80;;;7.30;99.90;;;;;;5059243;28;20187;-62
2022/04/08 03:41:31;;;;;;;4.17;1.13;;;7.30;99.90;;;;;;5055303;28;20187;-62
2022/04/08 03:43:56;;;;;;;1.70;0.90;;;7.20;99.90;;;;;;5053825;28;20543;-61
2022/04/08 03:46:22;;;;;;;0.90;0.90;;;7.20;99.90;;;;;;5055794;28;20193;-61
2022/04/08 03:48:47;;;;;;;4.07;1.37;;;7.20;99.90;;;;;;5057054;28;20668;-61
2022/04/08 03:51:13;;;;;;;3.37;1.20;;;7.20;99.90;;;;;;5054606;28;20219;-62
2022/04/08 03:53:38;;;;;;;2.40;1.43;;;7.10;99.90;;;;;;5054017;28;20285;-61
2022/04/08 03:56:05;;;;;;;1.40;0.80;;;7.00;99.90;;;;;;5055573;28;20668;-61
2022/04/08 03:58:31;;;;;;;1.03;1.03;;;7.00;99.90;;;;;;5048851;28;20324;-61
2022/04/08 04:00:56;;;;;;;1.03;0.90;;;6.90;99.90;;;;;;5054385;28;20735;-60
2022/04/08 04:03:22;;;;;;;2.50;1.20;;;6.90;99.90;;;;;;5048039;28;20798;-61
2022/04/08 04:05:47;;;;;;;0.73;0.53;;;6.80;99.90;;;;;;5045098;28;20187;-61
2022/04/08 04:08:18;;;;;;;4.73;1.60;;;6.80;99.90;;;;;;5062042;28;20206;-61
2022/04/08 04:10:45;;;;;;;1.87;0.90;;;6.80;99.90;;;;;;5060545;28;20656;-60
2022/04/08 04:13:11;;;;;;;0.80;0.80;;;6.80;99.90;;;;;;5062898;28;20866;-60
2022/04/08 04:15:36;;;;;;;1.40;0.80;;;6.70;99.90;;;;;;5057735;28;20228;-60
2022/04/08 04:18:03;;;;;;;1.60;1.40;;;6.70;99.90;;;;;;5061890;28;20221;-59
2022/04/08 04:20:29;;;;;;;2.93;1.37;;;6.70;99.90;;;;;;5054332;28;20194;-59
2022/04/08 04:22:54;;;;;;;2.33;1.40;;;6.70;99.90;;;;;;5045966;28;20621;-60
2022/04/08 04:25:20;;;;;;;1.33;0.63;;;6.70;99.90;;;;;;5056376;28;20206;-60
2022/04/08 04:27:45;;;;;;;0.67;0.67;;;6.70;99.90;;;;;;5051545;28;20208;-59
2022/04/08 04:30:11;;;;;;;1.40;0.70;;;6.60;99.90;;;;;;5059666;28;20196;-59
2022/04/08 04:32:36;;;;;;;1.27;0.90;;;6.50;99.90;;;;;;5058546;28;20699;-59
2022/04/08 04:35:06;;;;;;;1.57;0.90;;;6.50;99.90;;;;;;5061069;28;20571;-59
2022/04/08 04:37:33;;;;;;;3.13;0.83;;;6.40;99.90;;;;;;5065588;28;20218;-60
2022/04/08 04:39:59;;;;;;;3.70;1.10;;;6.50;99.90;;;;;;5061838;28;20209;-60
2022/04/08 04:42:27;;;;;;;2.93;0.90;;;6.40;99.90;;;;;;5064498;28;20272;-60
2022/04/08 04:44:53;;;;;;;2.20;0.77;;;6.30;99.90;;;;;;5058564;28;20391;-61
2022/04/08 04:47:18;;;;;;;0.77;0.77;;;6.30;99.90;;;;;;5054332;28;20669;-61
2022/04/08 04:49:44;;;;;;;0.93;0.67;;;6.20;99.90;;;;;;5067306;28;20595;-60
2022/04/08 04:52:10;;;;;;;1.87;1.00;;;6.10;99.90;;;;;;5065302;28;20226;-61
2022/04/08 04:54:35;;;;;;;3.70;1.63;;;6.10;99.90;;;;;;5055468;28;20668;-61
2022/04/08 04:57:01;;;;;;;0.87;0.87;;;6.10;99.90;;;;;;5050648;28;20206;-60
2022/04/08 04:59:26;;;;;;;2.53;1.43;;;6.10;99.90;;;;;;5066826;28;20592;-60
2022/04/08 05:01:52;;;;;;;5.77;1.33;;;6.10;99.90;;;;;;5058479;28;20191;-61
2022/04/08 05:04:17;;;;;;;2.20;1.40;;;6.10;99.90;;;;;;5056402;28;20178;-61
2022/04/08 05:06:42;;;;;;;1.10;1.00;;;6.10;99.90;;;;;;5065137;28;20194;-61
2022/04/08 05:09:08;;;;;;;2.10;1.63;;;6.10;99.90;;;;;;5060407;28;20278;-61
2022/04/08 05:11:33;;;;;;;2.23;1.53;;;6.10;99.90;;;;;;5047916;28;20234;-61
2022/04/08 05:14:00;;;;;;;1.27;0.83;;;6.00;99.90;;;;;;5065968;28;20281;-61
2022/04/08 05:16:26;;;;;;;4.70;1.80;;;6.00;99.90;;;;;;5050177;28;20300;-61
2022/04/08 05:18:51;;;;;;;1.20;1.00;;;6.00;99.90;;;;;;5052597;28;20736;-61
2022/04/08 05:21:17;;;;;;;4.37;1.87;;;6.00;99.90;;;;;;5063871;28;20182;-61
2022/04/08 05:23:42;;;;;;;3.07;1.40;;;6.10;99.90;;;;;;5047153;28;20195;-61
2022/04/08 05:26:08;;;;;;;2.83;1.73;;;6.10;99.90;;;;;;5066020;28;20312;-61
2022/04/08 05:28:33;;;;;;;1.93;1.00;;;6.10;99.90;;;;;;5054700;28;20596;-61
2022/04/08 05:30:59;;;;;;;3.00;1.03;;;6.10;99.90;;;;;;5056345;28;20289;-61
2022/04/08 05:33:24;;;;;;;3.40;1.20;;;6.10;99.90;;;;;;5063856;28;20194;-61
2022/04/08 05:35:50;;;;;;;4.23;1.50;;;6.10;99.90;;;;;;5063670;28;20198;-61
2022/04/08 05:38:16;;;;;;;3.97;1.70;;;6.10;99.90;;;;;;5064258;28;20210;-61
2022/04/08 05:40:41;;;;;;;5.00;1.57;;;6.10;99.90;;;;;;5050485;28;20197;-61
2022/04/08 05:43:07;;;;;;;2.90;0.90;;;6.10;99.90;;;;;;5053766;28;20198;-63
2022/04/08 05:45:33;;;;;;;5.03;1.30;;;6.10;99.90;;;;;;5052727;28;20701;-60
2022/04/08 05:48:05;;;;;;;1.87;1.30;;;6.10;99.90;;;;;;5050665;28;20206;-60
2022/04/08 05:50:31;;;;;;;3.13;1.40;;;6.20;99.90;;;;;;5055038;28;20187;-60
2022/04/08 05:52:57;;;;;;;2.37;0.97;;;6.10;99.90;;;;;;5064911;28;20218;-60
2022/04/08 05:55:22;;;;;;;1.57;1.10;;;6.00;99.90;;;;;;5066402;28;20189;-61
2022/04/08 05:57:48;;;;;;;2.83;0.90;;;6.00;99.90;;;;;;5064496;28;20279;-59
2022/04/08 06:00:15;;;;;;;1.77;1.10;;;6.10;99.90;;;;;;5062641;28;20210;-60
2022/04/08 06:02:45;;;;;;;1.40;0.70;;;6.20;99.90;;;;;;5053205;28;20199;-60
2022/04/08 06:05:12;;;;;;;0.70;0.70;;;6.10;99.90;;;;;;5066202;28;20265;-60
2022/04/08 06:07:48;;;;;;;2.90;0.90;;;6.10;99.90;;;;;;5056914;28;20205;-62
2022/04/08 06:10:18;;;;;;;3.60;0.93;;;6.10;99.90;;;;;;5065971;28;20276;-61
2022/04/08 06:12:47;;;;;;;2.10;1.03;;;6.10;99.90;;;;;;5050634;28;20790;-61
2022/04/08 06:15:13;;;;;;;1.90;0.67;;;6.20;99.90;;;;;;5053585;28;20194;-60
2022/04/08 06:17:39;;;;;;;2.10;0.90;;;6.20;99.90;;;;;;5045205;28;20225;-61
2022/04/08 06:20:06;;;;;;;1.63;1.10;;;6.20;99.90;;;;;;5048136;28;21002;-60
2022/04/08 06:22:32;;;;;;;1.83;1.50;;;6.20;99.90;;;;;;5063885;28;20222;-61
2022/04/08 06:24:57;;;;;;;7.07;1.23;;;6.20;99.90;;;;;;5063204;28;20280;-61
2022/04/08 06:27:23;;;;;;;2.63;1.20;;;6.20;99.90;;;;;;5052944;28;20287;-61
2022/04/08 06:29:48;;;;;;;3.70;1.50;;;6.30;99.90;;;;;;5052817;28;20289;-60
2022/04/08 06:32:14;;;;;;;3.73;1.53;;;6.30;99.90;;;;;;5050854;28;20198;-60
2022/04/08 06:34:40;;;;;;;1.70;1.30;;;6.30;99.90;;;;;;5060804;28;20194;-61
2022/04/08 06:37:05;;;;;;;1.53;1.13;;;6.40;99.90;;;;;;5063661;28;20198;-61
2022/04/08 06:39:31;;;;;;;2.57;1.13;;;6.40;99.90;;;;;;5051941;28;20185;-59
2022/04/08 06:41:57;;;;;;;4.80;1.13;;;5.40;99.90;;;;;;5050584;28;20201;-59
2022/04/08 06:44:23;;;;;;;4.13;1.10;;;4.00;99.90;;;;;;5065339;28;20182;-60
2022/04/08 06:46:48;;;;;;;3.67;1.13;;;3.50;99.90;;;;;;5061984;28;20281;-58
2022/04/08 06:49:13;;;;;;;1.70;0.80;;;3.20;99.90;;;;;;5049601;28;20187;-60
2022/04/08 06:51:39;;;;;;;3.90;1.43;;;3.20;99.90;;;;;;5048997;28;20845;-60
2022/04/08 06:54:04;;;;;;;7.93;1.60;;;3.20;99.90;;;;;;5063673;28;20294;-60
2022/04/08 06:56:30;;;;;;;3.60;1.50;;;3.20;99.90;;;;;;5057349;28;20264;-61
2022/04/08 06:58:55;;;;;;;1.47;0.90;;;3.10;99.90;;;;;;5060903;28;20206;-61
2022/04/08 07:01:22;;;;;;;3.33;1.83;;;3.10;99.90;;;;;;5063156;28;20184;-59
2022/04/08 07:03:48;;;;;;;2.37;1.37;;;3.10;99.90;;;;;;5061731;28;20369;-59
2022/04/08 07:06:13;;;;;;;4.20;1.00;;;3.00;99.90;;;;;;5056817;28;20668;-59
2022/04/08 07:08:39;;;;;;;3.67;1.27;;;3.00;99.90;;;;;;5052865;28;20198;-60
2022/04/08 07:11:04;;;;;;;7.10;1.50;;;3.00;99.90;;;;;;5065190;28;20292;-60
2022/04/08 07:13:30;;;;;;;7.50;1.40;;;3.10;99.90;;;;;;5049423;28;20209;-61
2022/04/08 07:15:55;;;;;;;2.77;1.47;;;3.30;99.90;;;;;;5058503;28;20598;-60
2022/04/08 07:18:21;;;;;;;6.33;2.23;;;3.30;99.90;;;;;;5054319;28;20229;-60
2022/04/08 07:20:47;;;;;;;9.93;2.43;;;3.40;99.90;;;;;;5049415;28;20202;-59
2022/04/08 07:23:12;;;;;;;7.30;1.80;;;3.60;99.90;;;;;;5057186;28;20205;-60
2022/04/08 07:25:39;;;;;;;7.07;1.90;;;3.50;99.90;;;;;;5050465;28;20735;-60
2022/04/08 07:28:04;;;;;;;4.17;1.80;;;3.70;99.90;;;;;;5058530;28;20254;-60
2022/04/08 07:30:30;;;;;;;4.50;2.07;;;3.70;99.90;;;;;;5055268;28;20603;-60
2022/04/08 07:32:56;;;;;;;3.53;1.40;;;3.90;99.90;;;;;;5052492;28;20206;-61
2022/04/08 07:35:23;;;;;;;8.37;1.73;;;4.00;99.90;;;;;;5054362;28;20204;-61
2022/04/08 07:37:49;;;;;;;8.37;1.90;;;4.10;99.90;;;;;;5043591;28;20229;-60
2022/04/08 07:40:14;;;;;;;4.63;1.20;;;4.00;99.90;;;;;;5051770;28;20203;-61
2022/04/08 07:42:41;;;;;;;4.40;1.50;;;4.10;99.90;;;;;;5054422;28;20304;-61
2022/04/08 07:45:07;;;;;;;4.80;2.03;;;4.10;99.90;;;;;;5064944;28;20255;-61
2022/04/08 07:47:33;;;;;;;5.77;2.23;;;4.00;99.90;;;;;;5053824;28;20629;-59
2022/04/08 07:50:05;;;;;;;8.00;1.67;;;4.00;99.90;;;;;;5050765;28;20211;-59
2022/04/08 07:52:30;;;;;;;2.40;1.77;;;4.00;99.90;;;;;;5059500;28;20260;-60
2022/04/08 07:54:56;;;;;;;5.07;1.90;;;4.10;99.90;;;;;;5054915;28;20665;-60
2022/04/08 07:57:22;;;;;;;4.03;1.50;;;4.10;99.90;;;;;;5064093;28;20578;-59
2022/04/08 07:59:48;;;;;;;6.63;1.73;;;4.30;99.90;;;;;;5057714;28;20195;-59
2022/04/08 08:02:14;;;;;;;5.43;2.00;;;4.40;99.90;;;;;;5054316;28;20202;-59
2022/04/08 08:04:40;;;;;;;5.00;2.03;;;4.60;99.90;;;;;;5059118;28;20205;-59
2022/04/08 08:07:06;;;;;;;5.43;1.73;;;4.70;99.90;;;;;;5066936;28;20680;-59
2022/04/08 08:09:33;;;;;;;6.53;1.67;;;4.80;99.90;;;;;;5052354;28;20179;-58
2022/04/08 08:11:59;;;;;;;5.10;2.53;;;4.90;99.90;;;;;;5054572;28;20194;-62
2022/04/08 08:14:25;;;;;;;8.20;2.10;;;5.00;99.90;;;;;;5052136;28;20189;-61
2022/04/08 08:16:50;;;;;;;4.17;1.50;;;5.10;99.90;;;;;;5055373;28;20673;-59
2022/04/08 08:19:16;;;;;;;6.87;1.93;;;5.20;99.90;;;;;;5058047;28;20187;-59
2022/04/08 08:21:41;;;;;;;6.07;1.83;;;5.30;99.90;;;;;;5053232;28;20802;-59
2022/04/08 08:24:07;;;;;;;7.23;1.90;;;5.40;99.90;;;;;;5067884;28;20968;-59
2022/04/08 08:26:33;;;;;;;4.17;2.00;;;5.60;99.90;;;;;;5065933;28;20296;-59
2022/04/08 08:28:59;;;;;;;4.53;2.03;;;5.70;99.90;;;;;;4993935;28;20193;-60
2022/04/08 08:31:24;;;;;;;14.03;1.60;;;5.90;99.90;;;;;;5048174;28;20183;-58
2022/04/08 08:33:50;;;;;;;3.77;1.20;;;6.20;99.90;;;;;;5062756;28;20194;-60
2022/04/08 08:36:15;;;;;;;5.63;2.23;;;6.50;99.90;;;;;;5068129;28;20855;-61
2022/04/08 08:38:41;;;;;;;5.77;2.10;;;6.50;99.90;;;;;;5050511;28;20221;-60
2022/04/08 08:41:10;;;;;;;9.93;2.27;;;6.60;99.90;;;;;;5048090;28;20210;-61
2022/04/08 08:43:36;;;;;;;4.27;1.73;;;6.60;99.90;;;;;;5061135;28;20194;-61
2022/04/08 08:46:03;;;;;;;4.77;1.43;;;6.60;99.90;;;;;;5067861;28;20213;-60
2022/04/08 08:48:35;;;;;;;4.37;1.30;;;6.70;99.90;;;;;;5052257;28;20325;-62
2022/04/08 08:51:05;;;;;;;4.47;1.93;;;6.60;99.90;;;;;;5047733;28;20227;-62
2022/04/08 08:53:33;;;;;;;5.17;1.43;;;6.60;99.90;;;;;;5060423;28;20297;-62
2022/04/08 08:55:59;;;;;;;4.37;1.40;;;6.60;99.90;;;;;;5067445;28;20255;-61
2022/04/08 08:58:25;;;;;;;6.60;1.80;;;6.70;99.90;;;;;;5052408;28;20665;-61
2022/04/08 09:00:50;;;;;;;6.60;2.07;;;6.80;99.90;;;;;;5052797;28;20174;-61
2022/04/08 09:03:16;;;;;;;5.73;1.93;;;7.10;99.90;;;;;;5057036;28;20951;-59
2022/04/08 09:05:44;;;;;;;4.87;1.83;;;7.00;99.90;;;;;;5057003;28;20361;-60
2022/04/08 09:08:10;;;;;;;8.70;1.90;;;7.10;99.90;;;;;;5056391;28;20202;-60
2022/04/08 09:10:40;;;;;;;7.07;1.73;;;7.20;99.90;;;;;;5067063;28;20550;-58
2022/04/08 09:13:07;;;;;;;1.80;1.10;;;7.20;99.90;;;;;;5065464;28;20273;-60
2022/04/08 09:15:36;;;;;;;4.60;1.97;;;7.20;99.90;;;;;;5067374;28;20708;-61
2022/04/08 09:18:10;;;;;;;7.00;2.20;;;7.20;99.90;;;;;;5054883;28;20226;-60
2022/04/08 09:20:44;;;;;;;4.97;1.30;;;7.20;99.90;;;;;;5047490;28;20183;-64
2022/04/08 09:23:11;;;;;;;5.57;1.40;;;7.20;99.90;;;;;;5055133;28;20721;-63
2022/04/08 09:25:37;;;;;;;1.83;0.70;;;7.40;99.90;;;;;;5066917;28;20579;-64
2022/04/08 09:28:11;;;;;;;5.20;1.83;;;7.70;99.90;;;;;;5055406;28;20207;-64
2022/04/08 09:30:37;;;;;;;5.87;1.67;;;7.80;99.90;;;;;;5066121;28;20198;-62
2022/04/08 09:33:21;;;;;;;3.20;1.33;;;7.90;99.90;;;;;;5045261;28;20695;-62
2022/04/08 09:35:47;;;;;;;4.07;2.03;;;7.70;99.90;;;;;;5050740;28;20275;-63
2022/04/08 09:38:21;;;;;;;8.50;1.30;;;7.80;99.90;;;;;;5061902;28;20225;-63
2022/04/08 09:40:47;;;;;;;3.70;1.10;;;7.90;99.90;;;;;;5059428;28;20196;-64
2022/04/08 09:43:14;;;;;;;2.20;1.10;;;7.80;99.90;;;;;;5057145;28;20580;-62
2022/04/08 09:45:40;;;;;;;5.83;1.60;;;7.80;99.90;;;;;;5063570;28;20194;-62
2022/04/08 09:48:08;;;;;;;3.03;1.10;;;7.80;99.90;;;;;;5064105;28;20198;-63
2022/04/08 09:50:37;;;;;;;5.73;1.87;;;7.90;99.90;;;;;;5060851;28;20199;-66
2022/04/08 09:53:03;;;;;;;4.03;1.20;;;8.10;99.60;;;;;;5055937;28;20216;-63
2022/04/08 09:55:29;;;;;;;7.67;1.77;;;8.40;99.50;;;;;;5052207;28;20558;-64
2022/04/08 09:58:02;;;;;;;3.93;1.77;;;8.60;97.50;;;;;;5058318;28;20217;-64
2022/04/08 10:00:28;;;;;;;7.23;1.33;;;8.40;98.00;;;;;;5066836;28;20197;-63
2022/04/08 10:02:55;;;;;;;3.27;1.20;;;8.60;97.80;;;;;;5064241;28;20210;-63
2022/04/08 10:05:24;;;;;;;4.37;1.70;;;8.50;97.40;;;;;;5065964;28;20194;-62
2022/04/08 10:07:53;;;;;;;4.83;1.30;;;8.40;97.10;;;;;;5056434;28;20259;-64
2022/04/08 10:10:45;;;;;;;5.37;1.37;;;8.60;98.10;;;;;;5049100;28;21076;-64
2022/04/08 10:13:39;;;;;;;3.20;1.80;;;8.60;97.30;;;;;;5060038;28;20567;-66
2022/04/08 10:16:17;;;;;;;4.97;1.40;;;8.70;97.60;;;;;;5052168;28;20644;-66
2022/04/08 10:18:44;;;;;;;2.03;1.20;;;8.70;97.10;;;;;;5056887;28;20669;-65
2022/04/08 10:21:10;;;;;;;2.40;1.13;;;8.50;97.70;;;;;;5052778;28;20252;-65
2022/04/08 10:23:46;;;;;;;3.03;1.20;;;8.50;97.00;;;;;;5059450;28;20628;-64
2022/04/08 10:26:21;;;;;;;3.43;1.17;;;8.50;96.80;;;;;;5061871;28;20215;-64
2022/04/08 10:28:48;;;;;;;5.07;1.20;;;8.50;96.00;;;;;;5055176;28;20213;-64
2022/04/08 10:31:14;;;;;;;3.37;0.90;;;8.50;96.20;;;;;;5049141;28;20239;-64
2022/04/08 10:33:56;;;;;;;3.53;1.33;;;8.60;96.10;;;;;;5048596;28;20283;-63
2022/04/08 10:36:41;;;;;;;3.63;0.93;;;8.80;95.40;;;;;;5065839;28;20192;-63
2022/04/08 10:39:18;;;;;;;5.93;0.97;;;9.30;95.90;;;;;;5063032;28;20248;-65
2022/04/08 10:41:52;;;;;;;5.00;1.27;;;9.60;93.20;;;;;;5061211;28;20244;-65
2022/04/08 10:44:33;;;;;;;3.17;1.00;;;9.40;93.10;;;;;;5055332;28;20198;-66
2022/04/08 10:47:09;;;;;;;1.30;0.90;;;9.50;92.00;;;;;;5051127;28;20190;-66
2022/04/08 10:49:45;;;;;;;2.93;2.00;;;9.70;91.30;;;;;;5061401;28;20201;-64
2022/04/08 10:52:15;;;;;;;3.23;1.10;;;9.30;90.30;;;;;;5048459;28;20696;-64
2022/04/08 10:54:40;;;;;;;2.27;1.00;;;9.10;90.50;;;;;;5063642;28;20331;-66
2022/04/08 10:57:06;;;;;;;2.57;1.27;;;9.00;91.00;;;;;;5056264;28;20191;-66
2022/04/08 10:59:31;;;;;;;3.33;1.37;;;8.70;91.40;;;;;;5054020;28;20333;-65
2022/04/08 11:02:02;;;;;;;3.40;2.57;;;8.40;92.60;;;;;;5051061;28;20221;-65
2022/04/08 11:04:29;;;;;;;5.40;1.73;;;8.40;94.50;;;;;;5053453;28;20559;-66
2022/04/08 11:06:55;;;;;;;3.87;2.00;;;8.50;94.30;;;;;;5064998;28;20289;-65
2022/04/08 11:09:22;;;;;;;1.40;1.13;;;8.50;94.80;;;;;;5063436;28;20305;-65
2022/04/08 11:11:52;;;;;;;1.10;0.90;;;8.50;95.00;;;;;;5065367;28;20201;-66
2022/04/08 11:14:18;;;;;;;2.47;1.00;;;8.60;95.30;;;;;;5054323;28;20191;-65
2022/04/08 11:16:43;;;;;;;4.00;1.13;;;8.60;95.00;;;;;;5049171;28;20193;-65
2022/04/08 11:19:12;;;;;;;5.70;1.07;;;8.80;95.80;;;;;;5063159;28;20290;-66
2022/04/08 11:21:38;;;;;;;4.67;0.93;;;9.10;95.60;;;;;;5056902;28;20278;-65
2022/04/08 11:24:10;;;;;;;3.10;1.00;;;9.20;96.10;;;;;;5051903;28;20678;-66
2022/04/08 11:26:49;;;;;;;4.03;1.20;;;9.10;95.00;;;;;;5051212;28;20313;-65
2022/04/08 11:29:17;;;;;;;5.27;2.07;;;9.00;95.40;;;;;;5062939;28;20711;-64
2022/04/08 11:31:44;;;;;;;4.60;1.13;;;9.00;96.00;;;;;;5066349;28;20205;-65
2022/04/08 11:34:13;;;;;;;1.97;1.03;;;8.80;95.70;;;;;;5066898;28;20220;-66
2022/04/08 11:36:39;;;;;;;1.27;0.93;;;8.90;96.00;;;;;;5066700;28;20559;-65
2022/04/08 11:39:05;;;;;;;1.40;0.87;;;9.50;96.10;;;;;;5055138;28;20288;-65
2022/04/08 11:41:31;;;;;;;6.17;1.50;;;10.10;94.40;;;;;;5054711;28;20387;-65
2022/04/08 11:43:58;;;;;;;5.03;1.73;;;10.70;93.40;;;;;;5057317;28;20644;-65
2022/04/08 11:46:24;;;;;;;4.97;1.97;;;10.90;91.40;;;;;;5057466;28;20186;-65
2022/04/08 11:48:49;;;;;;;3.30;1.13;;;10.40;91.10;;;;;;5065808;28;20194;-64
2022/04/08 11:51:22;;;;;;;2.87;1.40;;;9.90;91.50;;;;;;5058425;28;20232;-68
2022/04/08 11:53:49;;;;;;;4.63;2.20;;;9.90;91.50;;;;;;5054959;28;20286;-68
2022/04/08 11:56:23;;;;;;;2.50;1.20;;;9.90;91.00;;;;;;5068763;28;20194;-68
2022/04/08 11:59:05;;;;;;;2.60;1.50;;;10.10;90.60;;;;;;5058718;28;20215;-65
2022/04/08 12:01:37;;;;;;;3.77;1.03;;;10.00;90.50;;;;;;5058624;28;20172;-67
2022/04/08 12:04:06;;;;;;;2.30;1.40;;;10.10;88.20;;;;;;5060537;28;20305;-64
2022/04/08 12:06:38;;;;;;;1.50;1.07;;;10.40;89.30;;;;;;5060081;28;20476;-66
2022/04/08 12:09:04;;;;;;;2.83;1.07;;;10.60;87.80;;;;;;5055138;28;20196;-67
2022/04/08 12:11:30;;;;;;;2.50;0.97;;;10.50;87.50;;;;;;5057865;28;20194;-72
2022/04/08 12:13:57;;;;;;;1.90;1.10;;;10.10;88.00;;;;;;5056554;28;20207;-67
2022/04/08 12:16:22;;;;;;;1.80;1.50;;;9.70;90.40;;;;;;5066449;28;20191;-69
2022/04/08 12:18:52;;;;;;;3.60;1.67;;;9.50;90.80;;;;;;5054398;28;20224;-68
2022/04/08 12:21:27;;;;;;;4.53;1.77;;;9.70;91.50;;;;;;5066604;28;20183;-68
2022/04/08 12:23:54;;;;;;;1.23;0.90;;;9.60;91.60;;;;;;5051111;28;20650;-69
2022/04/08 12:26:25;;;;;;;2.47;1.50;;;10.10;89.30;;;;;;5063948;28;20206;-70
2022/04/08 12:28:50;;;;;;;3.50;1.03;;;10.10;83.80;;;;;;5062956;28;20227;-68
2022/04/08 12:31:19;;;;;;;1.77;0.90;;;10.20;80.90;;;;;;5056488;28;20869;-67
2022/04/08 12:33:45;;;;;;;4.53;1.37;;;10.80;82.70;;;;;;5058691;28;20213;-68
2022/04/08 12:36:12;;;;;;;2.17;1.47;;;10.90;78.80;;;;;;5054944;28;20199;-70
2022/04/08 12:38:42;;;;;;;2.67;1.43;;;10.60;79.90;;;;;;5058812;28;20259;-70
2022/04/08 12:41:10;;;;;;;3.00;1.23;;;10.20;81.10;;;;;;5062664;28;20240;-71
2022/04/08 12:43:35;;;;;;;6.93;2.03;;;10.10;82.00;;;;;;5063571;28;20660;-68
2022/04/08 12:46:01;;;;;;;4.10;1.27;;;9.80;83.60;;;;;;5061710;28;20186;-68
2022/04/08 12:48:27;;;;;;;0.83;0.83;;;9.80;85.10;;;;;;5057178;28;20284;-65
2022/04/08 12:50:53;;;;;;;3.33;1.30;;;9.80;86.10;;;;;;5054759;28;20667;-68
2022/04/08 12:53:20;;;;;;;3.90;1.57;;;9.70;85.20;;;;;;5067638;28;20201;-67
2022/04/08 12:55:45;;;;;;;3.53;1.97;;;9.60;86.50;;;;;;5065218;28;20202;-68